Time,TemperatureF,DewpointF,PressureIn,WindDirection,WindDirectionDegrees,WindSpeedMPH,WindSpeedGustMPH,Humidity,HourlyPrecipIn,Conditions,Clouds,dailyrainin,SolarRadiationWatts/m^2,SoftwareType,DateUTC
2013-04-15 00:41:00,50.0,48.0,-100.00,WSW,252,7.0,7.0,92,0.00,,,0.00,0.000000,,2013-04-15 07:41:00,
2013-04-15 01:13:00,50.0,47.0,-100.00,WSW,245,7.0,9.0,90,0.00,,,0.00,0.000000,,2013-04-15 08:13:00,
2013-04-15 01:22:00,50.0,47.0,-100.00,WSW,245,7.0,9.0,90,0.00,,,0.00,0.000000,,2013-04-15 08:22:00,
2013-04-15 01:33:00,50.0,47.0,-100.00,WSW,245,7.0,9.0,90,0.00,,,0.00,0.000000,,2013-04-15 08:33:00,
2013-04-15 01:42:00,50.0,47.0,-100.00,WSW,245,7.0,9.0,90,0.00,,,0.00,0.000000,,2013-04-15 08:42:00,
2013-04-15 02:12:00,50.0,46.0,-100.00,SW,235,11.0,15.0,87,0.00,,,0.00,1.000000,,2013-04-15 09:12:00,
2013-04-15 02:22:00,50.0,46.0,-100.00,SW,235,11.0,15.0,87,0.00,,,0.00,1.000000,,2013-04-15 09:22:00,
2013-04-15 02:32:00,50.0,46.0,-100.00,SW,235,11.0,15.0,87,0.00,,,0.00,1.000000,,2013-04-15 09:32:00,
2013-04-15 02:42:00,50.0,46.0,-100.00,SW,235,11.0,15.0,87,0.00,,,0.00,1.000000,,2013-04-15 09:42:00,
2013-04-15 03:13:00,49.0,46.0,-100.00,West,260,9.0,15.0,89,0.00,,,0.00,0.000000,,2013-04-15 10:13:00,
2013-04-15 03:23:00,49.0,46.0,-100.00,West,260,9.0,15.0,89,0.00,,,0.00,0.000000,,2013-04-15 10:23:00,
2013-04-15 03:33:00,49.0,46.0,-100.00,West,260,9.0,15.0,89,0.00,,,0.00,0.000000,,2013-04-15 10:33:00,
2013-04-15 03:42:00,49.0,46.0,-100.00,West,260,9.0,15.0,89,0.00,,,0.00,0.000000,,2013-04-15 10:42:00,
2013-04-15 04:12:00,49.0,47.0,-100.00,West,269,0.0,10.0,93,0.00,,,0.00,0.000000,,2013-04-15 11:12:00,
2013-04-15 04:22:00,49.0,47.0,-100.00,West,269,0.0,10.0,93,0.00,,,0.00,0.000000,,2013-04-15 11:22:00,
2013-04-15 04:32:00,49.0,47.0,-100.00,West,269,0.0,10.0,93,0.00,,,0.00,0.000000,,2013-04-15 11:32:00,
2013-04-15 04:42:00,49.0,47.0,-100.00,West,269,0.0,10.0,93,0.00,,,0.00,0.000000,,2013-04-15 11:42:00,
2013-04-15 05:13:00,49.0,46.0,-100.00,SW,233,8.0,13.0,89,0.00,,,0.00,0.000000,,2013-04-15 12:13:00,
2013-04-15 05:23:00,49.0,46.0,-100.00,SW,233,8.0,13.0,89,0.00,,,0.00,0.000000,,2013-04-15 12:23:00,
2013-04-15 05:33:00,49.0,46.0,-100.00,SW,233,8.0,13.0,89,0.00,,,0.00,0.000000,,2013-04-15 12:33:00,
2013-04-15 05:42:00,49.0,46.0,-100.00,SW,233,8.0,13.0,89,0.00,,,0.00,0.000000,,2013-04-15 12:42:00,
2013-04-15 06:12:00,49.0,46.0,-100.00,West,263,6.0,13.0,90,0.00,,,0.00,0.000000,,2013-04-15 13:12:00,
2013-04-15 06:23:00,49.0,46.0,-100.00,West,263,6.0,13.0,90,0.00,,,0.00,0.000000,,2013-04-15 13:23:00,
2013-04-15 06:33:00,49.0,46.0,-100.00,West,263,6.0,13.0,90,0.00,,,0.00,0.000000,,2013-04-15 13:33:00,
2013-04-15 06:42:00,49.0,46.0,-100.00,West,263,6.0,13.0,90,0.00,,,0.00,0.000000,,2013-04-15 13:42:00,
2013-04-15 07:12:00,48.0,46.0,-100.00,West,280,2.0,9.0,93,0.00,,,0.00,1.000000,,2013-04-15 14:12:00,
2013-04-15 07:22:00,48.0,46.0,-100.00,West,280,2.0,9.0,93,0.00,,,0.00,1.000000,,2013-04-15 14:22:00,
2013-04-15 07:43:00,48.0,46.0,-100.00,West,280,2.0,9.0,93,0.00,,,0.00,1.000000,,2013-04-15 14:43:00,
2013-04-15 08:13:00,49.0,47.0,-100.00,WSW,252,8.0,12.0,94,0.00,,,0.00,32.000000,,2013-04-15 15:13:00,
2013-04-15 08:23:00,49.0,47.0,-100.00,WSW,252,8.0,12.0,94,0.00,,,0.00,32.000000,,2013-04-15 15:23:00,
2013-04-15 08:34:00,49.0,47.0,-100.00,WSW,252,8.0,12.0,94,0.00,,,0.00,32.000000,,2013-04-15 15:34:00,
2013-04-15 08:43:00,49.0,47.0,-100.00,WSW,252,8.0,12.0,94,0.00,,,0.00,32.000000,,2013-04-15 15:43:00,
2013-04-15 09:13:00,51.0,48.0,-100.00,West,272,2.0,12.0,91,0.00,,,0.00,125.000000,,2013-04-15 16:13:00,
2013-04-15 09:23:00,51.0,48.0,-100.00,West,272,2.0,12.0,91,0.00,,,0.00,125.000000,,2013-04-15 16:23:00,
2013-04-15 09:33:00,51.0,48.0,-100.00,West,272,2.0,12.0,91,0.00,,,0.00,125.000000,,2013-04-15 16:33:00,
2013-04-15 09:43:00,51.0,48.0,-100.00,West,272,2.0,12.0,91,0.00,,,0.00,125.000000,,2013-04-15 16:43:00,
2013-04-15 10:14:00,50.0,48.0,-100.00,West,279,6.0,10.0,94,0.00,,,0.00,123.000000,,2013-04-15 17:14:00,
2013-04-15 10:21:00,50.0,48.0,-100.00,West,279,6.0,10.0,94,0.00,,,0.00,123.000000,,2013-04-15 17:21:00,
2013-04-15 10:32:00,50.0,48.0,-100.00,West,279,6.0,10.0,94,0.00,,,0.00,123.000000,,2013-04-15 17:32:00,
2013-04-15 10:43:00,50.0,48.0,-100.00,West,279,6.0,10.0,94,0.00,,,0.00,123.000000,,2013-04-15 17:43:00,
2013-04-15 11:12:00,53.0,47.0,-100.00,WNW,283,9.0,17.0,79,0.00,,,0.00,300.000000,,2013-04-15 18:12:00,
2013-04-15 11:23:00,53.0,47.0,-100.00,WNW,283,9.0,17.0,79,0.00,,,0.00,300.000000,,2013-04-15 18:23:00,
2013-04-15 11:32:00,53.0,47.0,-100.00,WNW,283,9.0,17.0,79,0.00,,,0.00,300.000000,,2013-04-15 18:32:00,
2013-04-15 11:42:00,53.0,47.0,-100.00,WNW,283,9.0,17.0,79,0.00,,,0.00,300.000000,,2013-04-15 18:42:00,
2013-04-15 12:12:00,55.0,44.0,-100.00,West,271,11.0,19.0,67,0.00,,,0.00,411.000000,,2013-04-15 19:12:00,
2013-04-15 12:22:00,55.0,44.0,-100.00,West,271,11.0,19.0,67,0.00,,,0.00,411.000000,,2013-04-15 19:22:00,
2013-04-15 12:34:00,55.0,44.0,-100.00,West,271,11.0,19.0,67,0.00,,,0.00,411.000000,,2013-04-15 19:34:00,
2013-04-15 12:44:00,55.0,44.0,-100.00,West,271,11.0,19.0,67,0.00,,,0.00,411.000000,,2013-04-15 19:44:00,
2013-04-15 13:11:00,55.0,45.0,-100.00,WSW,258,16.0,22.0,69,0.00,,,0.00,295.000000,,2013-04-15 20:11:00,
2013-04-15 13:22:00,55.0,45.0,-100.00,WSW,258,16.0,22.0,69,0.00,,,0.00,295.000000,,2013-04-15 20:22:00,
2013-04-15 13:32:00,55.0,45.0,-100.00,WSW,258,16.0,22.0,69,0.00,,,0.00,295.000000,,2013-04-15 20:32:00,
2013-04-15 13:42:00,55.0,45.0,-100.00,WSW,258,16.0,22.0,69,0.00,,,0.00,295.000000,,2013-04-15 20:42:00,
2013-04-15 14:12:00,55.0,45.0,-100.00,West,273,13.0,24.0,70,0.00,,,0.00,257.000000,,2013-04-15 21:12:00,
2013-04-15 14:22:00,55.0,45.0,-100.00,West,273,13.0,24.0,70,0.00,,,0.00,257.000000,,2013-04-15 21:22:00,
2013-04-15 14:32:00,55.0,45.0,-100.00,West,273,13.0,24.0,70,0.00,,,0.00,257.000000,,2013-04-15 21:32:00,
2013-04-15 14:42:00,55.0,45.0,-100.00,West,273,13.0,24.0,70,0.00,,,0.00,257.000000,,2013-04-15 21:42:00,
2013-04-15 15:13:00,56.0,45.0,-100.00,West,279,15.0,23.0,67,0.00,,,0.00,347.000000,,2013-04-15 22:13:00,
2013-04-15 15:23:00,56.0,45.0,-100.00,West,279,15.0,23.0,67,0.00,,,0.00,347.000000,,2013-04-15 22:23:00,
2013-04-15 15:32:00,56.0,45.0,-100.00,West,279,15.0,23.0,67,0.00,,,0.00,347.000000,,2013-04-15 22:32:00,
2013-04-15 15:42:00,56.0,45.0,-100.00,West,279,15.0,23.0,67,0.00,,,0.00,347.000000,,2013-04-15 22:42:00,
2013-04-15 16:12:00,54.0,45.0,-100.00,WNW,287,13.0,20.0,72,0.00,,,0.00,234.000000,,2013-04-15 23:12:00,
2013-04-15 16:22:00,54.0,45.0,-100.00,WNW,287,13.0,20.0,72,0.00,,,0.00,234.000000,,2013-04-15 23:22:00,
2013-04-15 16:32:00,54.0,45.0,-100.00,WNW,287,13.0,20.0,72,0.00,,,0.00,234.000000,,2013-04-15 23:32:00,
2013-04-15 16:42:00,54.0,45.0,-100.00,WNW,287,13.0,20.0,72,0.00,,,0.00,234.000000,,2013-04-15 23:42:00,
2013-04-15 17:12:00,54.0,46.0,-100.00,West,274,13.0,20.0,75,0.00,,,0.00,144.000000,,2013-04-16 00:12:00,
2013-04-15 17:22:00,54.0,46.0,-100.00,West,274,13.0,20.0,75,0.00,,,0.00,144.000000,,2013-04-16 00:22:00,
2013-04-15 17:32:00,54.0,46.0,-100.00,West,274,13.0,20.0,75,0.00,,,0.00,144.000000,,2013-04-16 00:32:00,
2013-04-15 17:42:00,54.0,46.0,-100.00,West,274,13.0,20.0,75,0.00,,,0.00,144.000000,,2013-04-16 00:42:00,
2013-04-15 18:12:00,53.0,46.0,-100.00,West,269,10.0,22.0,76,0.00,,,0.00,88.000000,,2013-04-16 01:12:00,
2013-04-15 18:22:00,53.0,46.0,-100.00,West,269,10.0,22.0,76,0.00,,,0.00,88.000000,,2013-04-16 01:22:00,
2013-04-15 18:32:00,53.0,46.0,-100.00,West,269,10.0,22.0,76,0.00,,,0.00,88.000000,,2013-04-16 01:32:00,
2013-04-15 18:42:00,53.0,46.0,-100.00,West,269,10.0,22.0,76,0.00,,,0.00,88.000000,,2013-04-16 01:42:00,
2013-04-15 19:12:00,51.0,45.0,-100.00,SW,230,17.0,23.0,79,0.00,,,0.00,36.000000,,2013-04-16 02:12:00,
2013-04-15 19:22:00,51.0,45.0,-100.00,SW,230,17.0,23.0,79,0.00,,,0.00,36.000000,,2013-04-16 02:22:00,
2013-04-15 19:32:00,51.0,45.0,-100.00,SW,230,17.0,23.0,79,0.00,,,0.00,36.000000,,2013-04-16 02:32:00,
2013-04-15 19:42:00,51.0,45.0,-100.00,SW,230,17.0,23.0,79,0.00,,,0.00,36.000000,,2013-04-16 02:42:00,
2013-04-15 20:12:00,50.0,44.0,-100.00,SW,232,16.0,25.0,79,0.00,,,0.00,5.000000,,2013-04-16 03:12:00,
2013-04-15 20:22:00,50.0,44.0,-100.00,SW,232,16.0,25.0,79,0.00,,,0.00,5.000000,,2013-04-16 03:22:00,
2013-04-15 20:33:00,50.0,44.0,-100.00,SW,232,16.0,25.0,79,0.00,,,0.00,5.000000,,2013-04-16 03:33:00,
2013-04-15 20:43:00,50.0,44.0,-100.00,SW,232,16.0,25.0,79,0.00,,,0.00,5.000000,,2013-04-16 03:43:00,
2013-04-15 21:12:00,49.0,42.0,-100.00,SW,220,12.0,21.0,78,0.00,,,0.00,0.000000,,2013-04-16 04:12:00,
2013-04-15 21:23:00,49.0,42.0,-100.00,SW,220,12.0,21.0,78,0.00,,,0.00,0.000000,,2013-04-16 04:23:00,
2013-04-15 21:32:00,49.0,42.0,-100.00,SW,220,12.0,21.0,78,0.00,,,0.00,0.000000,,2013-04-16 04:32:00,
2013-04-15 21:42:00,49.0,42.0,-100.00,SW,220,12.0,21.0,78,0.00,,,0.00,0.000000,,2013-04-16 04:42:00,
2013-04-15 22:12:00,48.0,41.0,-100.00,SW,219,9.0,16.0,77,0.00,,,0.00,0.000000,,2013-04-16 05:12:00,
2013-04-15 22:22:00,48.0,41.0,-100.00,SW,219,9.0,16.0,77,0.00,,,0.00,0.000000,,2013-04-16 05:22:00,
2013-04-15 22:32:00,48.0,41.0,-100.00,SW,219,9.0,16.0,77,0.00,,,0.00,0.000000,,2013-04-16 05:32:00,
2013-04-15 22:42:00,48.0,41.0,-100.00,SW,219,9.0,16.0,77,0.00,,,0.00,0.000000,,2013-04-16 05:42:00,
2013-04-15 23:12:00,49.0,41.0,-100.00,SSW,199,8.0,17.0,74,0.00,,,0.00,0.000000,,2013-04-16 06:12:00,
2013-04-15 23:22:00,49.0,41.0,-100.00,SSW,199,8.0,17.0,74,0.00,,,0.00,0.000000,,2013-04-16 06:22:00,
2013-04-15 23:32:00,49.0,41.0,-100.00,SSW,199,8.0,17.0,74,0.00,,,0.00,0.000000,,2013-04-16 06:32:00,
2013-04-15 23:42:00,49.0,41.0,-100.00,SSW,199,8.0,17.0,74,0.00,,,0.00,0.000000,,2013-04-16 06:42:00,